Wetterdaten: Jahr 2023
Datum Temp. A. Feuchte A. Luftdruck Regen Wind Richtung Sonnenschein UV Solar Windben
01.01.2023 13,0 C 75 % 1014,4 hPa 0,8 l/m 7,0 km/h S-SW 0,00 h 0,5 UV-I 37 W/m 19,0 km/h
02.01.2023 10,4 C 82 % 1018,3 hPa 1,6 l/m 9,9 km/h SW 0,00 h 0,0 UV-I 31 W/m 20,6 km/h
03.01.2023 7,6 C 78 % 1026,2 hPa 0,0 l/m 5,2 km/h SW 1,25 h 0,6 UV-I 77 W/m 13,4 km/h
04.01.2023 10,9 C 85 % 1013,5 hPa 8,8 l/m 18,1 km/h S-SW 0,00 h 0,0 UV-I 27 W/m 31,5 km/h
05.01.2023 9,4 C 89 % 1018,6 hPa 3,6 l/m 8,7 km/h W-SW 0,00 h 0,5 UV-I 44 W/m 16,1 km/h
06.01.2023 10,3 C 85 % 1017,4 hPa 0,2 l/m 6,3 km/h SW 0,00 h 0,6 UV-I 40 W/m 14,1 km/h
07.01.2023 9,8 C 78 % 1010,0 hPa 0,0 l/m 3,9 km/h SO 0,50 h 0,6 UV-I 59 W/m 14,2 km/h
08.01.2023 9,3 C 77 % 1000,1 hPa 1,4 l/m 6,4 km/h SO 1,92 h 0,7 UV-I 91 W/m 14,6 km/h
09.01.2023 6,5 C 85 % 1001,9 hPa 6,4 l/m 7,3 km/h SW 0,50 h 0,6 UV-I 68 W/m 17,8 km/h
10.01.2023 6,3 C 83 % 1015,1 hPa 0,8 l/m 5,5 km/h SW 0,25 h 0,6 UV-I 65 W/m 14,2 km/h
11.01.2023 9,0 C 82 % 1010,7 hPa 4,4 l/m 10,7 km/h S-SW 0,33 h 0,5 UV-I 43 W/m 23,8 km/h
12.01.2023 9,7 C 87 % 1005,8 hPa 7,8 l/m 14,6 km/h S-SW 0,00 h 0,0 UV-I 28 W/m 32,3 km/h
13.01.2023 7,9 C 80 % 1008,3 hPa 4,6 l/m 12,8 km/h SW 0,08 h 0,5 UV-I 47 W/m 26,3 km/h
14.01.2023 9,3 C 82 % 1002,4 hPa 8,0 l/m 12,6 km/h SW 0,00 h 0,0 UV-I 22 W/m 27,0 km/h
15.01.2023 6,3 C 74 % 1000,1 hPa 5,6 l/m 12,0 km/h SW 1,33 h 0,7 UV-I 84 W/m 28,7 km/h
16.01.2023 4,4 C 83 % 982,0 hPa 0,0 l/m 7,7 km/h O-SO 1,25 h 0,7 UV-I 79 W/m 17,4 km/h
17.01.2023 0,6 C 86 % 988,2 hPa 2,8 l/m 3,8 km/h W-SW 2,75 h 0,8 UV-I 106 W/m 8,1 km/h
18.01.2023 0,1 C 80 % 997,9 hPa 0,2 l/m 1,4 km/h S 2,42 h 0,7 UV-I 104 W/m 7,8 km/h
19.01.2023 1,4 C 88 % 1005,8 hPa 4,8 l/m 5,2 km/h SW 0,00 h 0,5 UV-I 29 W/m 13,4 km/h
20.01.2023 0,3 C 85 % 1018,5 hPa 0,0 l/m 1,6 km/h O-NO 0,58 h 0,7 UV-I 75 W/m 3,3 km/h
21.01.2023 0,3 C 84 % 1030,1 hPa 0,0 l/m 2,3 km/h W-NW 0,00 h 0,7 UV-I 56 W/m 10,6 km/h
22.01.2023 1,3 C 92 % 1031,6 hPa 0,8 l/m 2,4 km/h NO 0,00 h 0,0 UV-I 25 W/m 4,9 km/h
23.01.2023 2,5 C 88 % 1037,2 hPa 0,0 l/m 2,5 km/h NO 0,00 h 0,6 UV-I 51 W/m 9,8 km/h
24.01.2023 1,5 C 83 % 1038,4 hPa 0,0 l/m 3,4 km/h O-NO 0,00 h 0,5 UV-I 43 W/m 11,8 km/h
25.01.2023 -1,4 C 94 % 1029,6 hPa 0,0 l/m 3,7 km/h W-SW 0,00 h 0,0 UV-I 25 W/m 9,0 km/h
26.01.2023 -0,4 C 95 % 1023,0 hPa 0,4 l/m 2,3 km/h W-SW 0,00 h 0,0 UV-I 30 W/m 3,7 km/h
27.01.2023 2,8 C 87 % 1026,5 hPa 0,0 l/m 3,2 km/h NO 0,00 h 0,6 UV-I 48 W/m 9,0 km/h
28.01.2023 -0,2 C 79 % 1029,8 hPa 0,0 l/m 0,5 km/h W 1,50 h 0,8 UV-I 81 W/m 0,5 km/h
29.01.2023 1,2 C 83 % 1023,7 hPa 0,0 l/m 4,0 km/h SW 0,00 h 0,6 UV-I 46 W/m 8,9 km/h
30.01.2023 5,4 C 85 % 1016,7 hPa 4,4 l/m 15,7 km/h W-SW 0,75 h 0,8 UV-I 77 W/m 31,9 km/h
31.01.2023 5,5 C 86 % 1019,0 hPa 1,4 l/m 13,9 km/h W-SW 0,17 h 0,6 UV-I 40 W/m 26,6 km/h
01.02.2023 5,0 C 87 % 1015,6 hPa 8,6 l/m 16,3 km/h W-SW 0,00 h 0,6 UV-I 34 W/m 27,9 km/h
02.02.2023 5,6 C 94 % 1022,3 hPa 17,8 l/m 8,1 km/h W-SW 0,00 h 0,0 UV-I 29 W/m 15,8 km/h
03.02.2023 7,4 C 85 % 1024,0 hPa 4,6 l/m 16,3 km/h W-SW 0,00 h 0,5 UV-I 21 W/m 27,4 km/h
04.02.2023 4,3 C 80 % 1036,6 hPa 0,0 l/m 4,0 km/h O 5,58 h 1,1 UV-I 177 W/m 8,9 km/h
05.02.2023 4,0 C 92 % 1037,1 hPa 4,4 l/m 4,3 km/h W-NW 0,00 h 0,6 UV-I 42 W/m 10,6 km/h
06.02.2023 1,4 C 89 % 1040,5 hPa 0,0 l/m 2,5 km/h W 0,25 h 0,7 UV-I 84 W/m 7,3 km/h
07.02.2023 0,9 C 70 % 1040,1 hPa 0,0 l/m 2,0 km/h O-NO 7,42 h 1,2 UV-I 215 W/m 4,1 km/h
08.02.2023 2,2 C 56 % 1036,3 hPa 0,0 l/m 3,0 km/h O-NO 7,42 h 1,2 UV-I 219 W/m 10,5 km/h
09.02.2023 2,2 C 60 % 1033,0 hPa 0,0 l/m 3,3 km/h O 7,08 h 1,2 UV-I 182 W/m 10,9 km/h
10.02.2023 5,1 C 76 % 1035,5 hPa 0,0 l/m 8,2 km/h SW 4,67 h 1,2 UV-I 177 W/m 16,2 km/h
11.02.2023 6,8 C 90 % 1034,4 hPa 0,0 l/m 11,1 km/h W-SW 0,00 h 0,5 UV-I 31 W/m 18,6 km/h
12.02.2023 7,6 C 90 % 1038,4 hPa 0,0 l/m 3,1 km/h W-SW 0,00 h 0,8 UV-I 69 W/m 6,1 km/h
13.02.2023 7,7 C 84 % 1036,4 hPa 0,0 l/m 3,0 km/h O 4,58 h 1,3 UV-I 179 W/m 7,7 km/h
14.02.2023 7,4 C 71 % 1031,9 hPa 0,0 l/m 3,7 km/h O 7,83 h 1,5 UV-I 236 W/m 10,6 km/h
15.02.2023 5,4 C 76 % 1025,6 hPa 0,0 l/m 6,5 km/h O 7,83 h 1,4 UV-I 232 W/m 15,4 km/h
16.02.2023 8,7 C 72 % 1022,1 hPa 0,0 l/m 8,6 km/h O 2,17 h 1,0 UV-I 132 W/m 18,6 km/h
17.02.2023 10,4 C 86 % 1018,2 hPa 2,0 l/m 14,2 km/h W-SW 0,50 h 1,0 UV-I 61 W/m 23,0 km/h
18.02.2023 9,7 C 92 % 1016,9 hPa 2,4 l/m 13,8 km/h W-SW 0,00 h 0,5 UV-I 33 W/m 25,8 km/h
19.02.2023 7,1 C 91 % 1022,5 hPa 10,2 l/m 6,7 km/h W-SW 0,67 h 1,1 UV-I 98 W/m 11,8 km/h
20.02.2023 7,4 C 89 % 1019,9 hPa 0,0 l/m 15,7 km/h SW 0,50 h 0,8 UV-I 78 W/m 28,3 km/h
21.02.2023 8,0 C 95 % 1017,9 hPa 0,0 l/m 4,7 km/h W-SW 0,00 h 0,6 UV-I 44 W/m 9,8 km/h
22.02.2023 10,8 C 79 % 1011,7 hPa 0,0 l/m 3,9 km/h O 6,75 h 1,3 UV-I 197 W/m 9,8 km/h
23.02.2023 7,4 C 95 % 1013,4 hPa 3,4 l/m 2,5 km/h W-SW 0,00 h 0,7 UV-I 46 W/m 6,4 km/h
24.02.2023 3,2 C 91 % 1004,3 hPa 5,8 l/m 10,7 km/h W-SW 0,00 h 0,6 UV-I 42 W/m 19,8 km/h
25.02.2023 1,8 C 74 % 1010,4 hPa 0,0 l/m 5,8 km/h W 1,50 h 1,0 UV-I 138 W/m 15,4 km/h
26.02.2023 1,5 C 68 % 1024,4 hPa 0,0 l/m 0,9 km/h W-NW 6,25 h 1,5 UV-I 250 W/m 3,7 km/h
27.02.2023 1,6 C 73 % 1029,7 hPa 0,0 l/m 2,2 km/h NO 5,67 h 1,5 UV-I 235 W/m 5,3 km/h
28.02.2023 1,4 C 67 % 1030,6 hPa 0,0 l/m 0,8 km/h NO 5,17 h 1,4 UV-I 215 W/m 2,9 km/h
01.03.2023 2,1 C 62 % 1026,8 hPa 0,0 l/m 2,5 km/h NO 8,83 h 1,6 UV-I 288 W/m 8,9 km/h
02.03.2023 3,2 C 71 % 1023,3 hPa 0,0 l/m 0,9 km/h O-NO 8,83 h 1,7 UV-I 292 W/m 5,3 km/h
03.03.2023 2,0 C 86 % 1024,7 hPa 0,0 l/m 4,2 km/h SW 2,42 h 1,2 UV-I 154 W/m 7,3 km/h
04.03.2023 4,4 C 80 % 1021,6 hPa 0,0 l/m 10,1 km/h W 0,08 h 0,7 UV-I 73 W/m 18,2 km/h
05.03.2023 3,5 C 83 % 1012,7 hPa 0,2 l/m 6,8 km/h W 1,17 h 1,1 UV-I 113 W/m 12,6 km/h
06.03.2023 2,7 C 85 % 1003,1 hPa 0,4 l/m 6,6 km/h SW 0,25 h 0,8 UV-I 79 W/m 15,4 km/h
07.03.2023 1,1 C 94 % 997,6 hPa 9,8 l/m 6,4 km/h SW 0,00 h 0,6 UV-I 54 W/m 15,0 km/h
08.03.2023 1,2 C 91 % 994,1 hPa 1,6 l/m 5,4 km/h O-NO 0,00 h 0,8 UV-I 79 W/m 12,2 km/h
09.03.2023 3,5 C 94 % 995,0 hPa 5,4 l/m 4,3 km/h O-NO 0,00 h 0,7 UV-I 69 W/m 8,6 km/h
10.03.2023 5,1 C 92 % 990,8 hPa 16,8 l/m 12,7 km/h SW 0,58 h 1,1 UV-I 113 W/m 21,0 km/h
11.03.2023 1,8 C 72 % 1010,7 hPa 0,0 l/m 3,0 km/h W 4,25 h 1,6 UV-I 241 W/m 6,6 km/h
12.03.2023 6,8 C 79 % 1008,4 hPa 0,4 l/m 10,5 km/h SW 0,00 h 0,6 UV-I 75 W/m 20,2 km/h
13.03.2023 13,5 C 74 % 994,7 hPa 0,4 l/m 9,1 km/h S-SW 1,42 h 1,4 UV-I 127 W/m 23,4 km/h
14.03.2023 5,4 C 77 % 1000,7 hPa 7,2 l/m 8,4 km/h SW 0,17 h 0,8 UV-I 93 W/m 16,2 km/h
15.03.2023 3,2 C 70 % 1018,3 hPa 1,8 l/m 6,1 km/h W-SW 5,00 h 1,9 UV-I 278 W/m 11,8 km/h
16.03.2023 6,8 C 62 % 1015,4 hPa 0,0 l/m 5,6 km/h O-SO 4,58 h 1,6 UV-I 231 W/m 14,6 km/h
17.03.2023 11,5 C 58 % 1008,6 hPa 0,0 l/m 4,9 km/h O 4,83 h 1,7 UV-I 231 W/m 9,4 km/h
18.03.2023 12,6 C 81 % 1011,3 hPa 4,8 l/m 1,9 km/h SW 5,58 h 2,0 UV-I 243 W/m 2,9 km/h
19.03.2023 12,2 C 80 % 1014,8 hPa 1,0 l/m 1,1 km/h W 1,58 h 1,5 UV-I 154 W/m 3,3 km/h
20.03.2023 8,5 C 80 % 1018,2 hPa 0,0 l/m 9,1 km/h W-SW 0,83 h 1,4 UV-I 158 W/m 16,2 km/h
21.03.2023 10,7 C 80 % 1013,2 hPa 0,6 l/m 5,0 km/h S-SW 0,08 h 0,9 UV-I 93 W/m 11,8 km/h
22.03.2023 12,9 C 66 % 1006,9 hPa 0,0 l/m 6,3 km/h S-SW 3,25 h 1,8 UV-I 204 W/m 15,0 km/h
23.03.2023 11,8 C 78 % 1004,4 hPa 1,2 l/m 8,1 km/h S-SW 0,33 h 1,1 UV-I 122 W/m 17,4 km/h
24.03.2023 11,1 C 76 % 1002,0 hPa 4,6 l/m 10,0 km/h SW 2,25 h 1,8 UV-I 211 W/m 19,0 km/h
25.03.2023 8,3 C 84 % 1004,0 hPa 3,2 l/m 12,5 km/h SW 1,58 h 1,3 UV-I 151 W/m 24,2 km/h
26.03.2023 6,7 C 86 % 1004,4 hPa 4,2 l/m 6,0 km/h SW 0,00 h 0,8 UV-I 81 W/m 12,6 km/h
27.03.2023 2,7 C 80 % 1019,6 hPa 0,4 l/m 8,5 km/h W-SW 3,58 h 1,8 UV-I 226 W/m 14,2 km/h
28.03.2023 5,3 C 65 % 1023,4 hPa 0,0 l/m 3,2 km/h W-SW 6,25 h 2,0 UV-I 266 W/m 10,6 km/h
Min-Datum 21.01.23 08.02.23 16.01.23 47 Tage 01.01.23 - - - - 29.01.23
Min-Zeit 05:05 13:00 20:40 - 17:05 - - - - 06:30
Minimum -4,6 C 34 % 976,9 hPa - 0,5 km/h - - - - 0,0 km/h
Max-Datum 18.03.23 26.01.23 07.02.23 02.02.23 10.03.23 - 01.03.23 24.03.23 28.03.23 17.02.23
Max-Zeit 16:25 20:00 00:40 06:15 19:50 - 17:10 12:25 13:15 14:15
Maximum 17,4 C 96 % 1041,5 hPa 17,8 l/m 32,0 km/h
SW
- 8,75 h 4,1 UV-I 888 W/m 60,0 km/h
W-SW
Durchschnitt 5,7 C 81 % 1016,8 hPa #192,0 l/m 6,7 km/h W-SW #165:10 h 1,0 UV-I 111 W/m 14,3 km/h

Durchschnitt Minimum Temp.3,3 C
Durchschnitt Maximum Temp.8,3 C

Jahr Standard-Abweichung:   + 5,67 K
Jahr Normal Wert:    0,00 C
Eistage (Tmax < 0C) :0
Frosttage (Tmin < 0C) :22
Kalte Tage (Tmax < 10C) :55
Sommertage (Tmax >= 25C) :0
Heie Tage (Tmax >= 30C) :0

Regen Tage
> 0,0 l/m47
> 2,0 l/m27
> 20,0 l/m0
Jahr Standard-Abweichung:   + 192,0 l/m
Jahr Normal Wert:    0,0 l/m

VerteilungWindrichtung
Windstille17,4 %
N-NO0,7 %
NO4,1 %
O-NO6,0 %
O7,6 %
O-SO5,1 %
SO3,7 %
S-SO3,7 %
S5,3 %
S-SW9,7 %
SW18,2 %
W-SW19,1 %
W10,9 %
W-NW3,7 %
NW1,4 %
N-NW0,5 %
N0,3 %